LGZA Airport Information

Runway Information
Runway 16 Length 7310 ft width 148 ft
Elevation 11 ft Threshold 640 ft Heading 163
Runway 34 Length 7310 ft Width 148 ft
Elevation 12 ft Threshold 659 ft Heading 343
Airport Frequencies
Type A/G Name RDO Frequency 563.7 MHZ
Type TWR Name TWR Frequency 125.425 MHZ
Airport Navaids
Type VOR-DME Name Zakinthos Frequency 110800 KHZ
Type NDB Name Zakinthos Frequency 326 KHZ
Airport Weather Information & NOTAM
ADDS - METARS form results

(0000 UTC 19 August 2022)
Data provider http://aviationweather.gov/metar/data/
 
Forecast for: LGZA (ZAKINTHOS AIRPOR, GR)
Text: TAF LGZA 182300Z 1900/1909 VRB05KT 9999 FEW018
Forecast period: 0000 to 0900 UTC 19 August 2022
Forecast type: FROM: standard forecast or significant change
Winds: variable direction winds at 6 MPH (5 knots; 2.6 m/s)
Visibility: 6 or more miles (10+ km)
Ceiling: at least 12,000 feet AGL
Clouds: few clouds at 1800 feet AGL
Weather: no significant weather forecast for this period